Time;durP1;ratioP1;P1;durP2;ratioP2;P2;SDS_P1;SDS_P2;PMS_P1;PMS_P2;Temp;Humidity;BMP_temperature;BMP_pressure;BME280_temperature;BME280_humidity;BME280_pressure;Samples;Min_cycle;Max_cycle;Signal;HPM_P1;HPM_P2
2022/12/27 00:34:56;;;;;;;6.50;1.40;;;5.00;99.90;;;;;;2036840;23;20490;-94
2022/12/27 00:37:28;;;;;;;1.15;1.00;;;5.00;99.90;;;;;;4939842;29;20229;-95
2022/12/27 00:39:55;;;;;;;1.10;0.93;;;4.90;99.90;;;;;;5014176;23;20213;-95
2022/12/27 00:42:22;;;;;;;1.13;0.90;;;4.90;99.90;;;;;;4943231;29;20171;-94
2022/12/27 00:44:52;;;;;;;1.65;1.10;;;4.80;99.90;;;;;;4941219;29;20214;-93
2022/12/27 00:47:19;;;;;;;1.00;0.90;;;4.80;99.90;;;;;;4941141;29;20198;-95
2022/12/27 00:49:47;;;;;;;3.30;1.17;;;4.80;99.90;;;;;;4940921;29;20229;-93
2022/12/27 00:52:14;;;;;;;1.45;1.02;;;4.70;99.90;;;;;;4941105;29;20191;-95
2022/12/27 00:54:44;;;;;;;1.10;0.93;;;4.60;99.90;;;;;;4946976;29;20222;-93
2022/12/27 00:57:26;;;;;;;1.48;1.05;;;4.50;99.90;;;;;;4946980;29;20194;-95
2022/12/27 07:30:54;;;;;;;1.58;1.35;;;0.70;99.90;;;;;;825505;23;20652;-92
2022/12/27 07:33:23;;;;;;;1.25;1.05;;;0.70;99.90;;;;;;5070407;23;20238;-93
2022/12/27 07:51:35;;;;;;;1.67;1.42;;;1.20;99.90;;;;;;4987172;23;20218;-94
2022/12/27 09:16:53;;;;;;;1.40;1.30;;;5.90;99.90;;;;;;3732610;27;20232;-94
2022/12/27 09:19:20;;;;;;;1.10;0.90;;;5.90;99.90;;;;;;4905953;29;20216;-93
2022/12/27 09:21:47;;;;;;;1.95;1.23;;;6.10;99.90;;;;;;4906146;29;20228;-94
2022/12/27 09:24:14;;;;;;;1.80;0.88;;;6.20;99.90;;;;;;4906241;29;20199;-93
2022/12/27 09:42:27;;;;;;;1.55;0.88;;;13.70;99.90;;;;;;4903680;29;20220;-94
2022/12/27 09:45:00;;;;;;;1.30;1.20;;;13.80;99.90;;;;;;4898516;29;20278;-95
2022/12/27 09:47:44;;;;;;;1.45;1.27;;;13.80;99.90;;;;;;4899515;29;20196;-94
2022/12/27 09:50:17;;;;;;;1.20;1.10;;;13.60;99.90;;;;;;4905611;29;20231;-94
2022/12/27 10:29:26;;;;;;;3.53;1.50;;;21.00;92.90;;;;;;4734715;27;20528;-92
2022/12/27 10:31:54;;;;;;;1.53;1.03;;;21.00;90.20;;;;;;4902994;29;20462;-92
2022/12/27 10:34:23;;;;;;;1.20;1.10;;;20.20;91.60;;;;;;4905425;29;20558;-94
2022/12/27 10:36:51;;;;;;;1.63;1.10;;;19.70;90.80;;;;;;4910792;29;20495;-93
2022/12/27 10:39:20;;;;;;;1.63;0.93;;;19.70;91.60;;;;;;4902654;29;20606;-92
2022/12/27 10:41:57;;;;;;;2.70;1.30;;;19.40;91.40;;;;;;4902841;29;20945;-93
2022/12/27 10:44:28;;;;;;;1.30;1.00;;;20.60;91.10;;;;;;4903242;29;20526;-94
2022/12/27 10:46:56;;;;;;;2.20;1.07;;;20.60;90.40;;;;;;4906025;29;20976;-93
2022/12/27 10:49:46;;;;;;;1.50;1.40;;;19.60;90.60;;;;;;4903072;29;20593;-94
2022/12/27 10:52:19;;;;;;;1.50;1.20;;;18.40;91.00;;;;;;4918197;29;20470;-95
2022/12/27 10:54:56;;;;;;;1.63;1.40;;;18.40;91.80;;;;;;4919738;29;20562;-95
2022/12/27 10:57:28;;;;;;;1.80;1.10;;;19.50;91.80;;;;;;4912925;29;20769;-94
2022/12/27 11:00:21;;;;;;;1.60;1.17;;;19.50;90.90;;;;;;4908254;29;20519;-93
2022/12/27 11:02:52;;;;;;;1.87;1.70;;;19.20;91.20;;;;;;4903512;29;20432;-93
2022/12/27 11:05:22;;;;;;;4.10;1.30;;;18.30;91.10;;;;;;4902763;29;20443;-93
2022/12/27 11:07:49;;;;;;;1.33;1.10;;;17.40;92.20;;;;;;4902624;29;20468;-93
2022/12/27 11:10:17;;;;;;;2.10;1.60;;;17.10;92.10;;;;;;4895796;29;20480;-93
2022/12/27 11:12:58;;;;;;;1.80;1.00;;;17.90;92.70;;;;;;4887504;29;20472;-93
2022/12/27 11:15:28;;;;;;;1.30;1.17;;;19.20;91.40;;;;;;4896790;29;20492;-93
2022/12/27 11:17:58;;;;;;;1.93;1.30;;;18.80;90.90;;;;;;4893765;29;20473;-93
2022/12/27 11:20:36;;;;;;;2.67;1.30;;;18.40;91.50;;;;;;4884203;29;20535;-92
2022/12/27 11:23:11;;;;;;;2.60;1.37;;;17.80;91.40;;;;;;4884664;29;20466;-93
2022/12/27 11:25:51;;;;;;;2.03;1.40;;;17.00;92.70;;;;;;4885149;29;20989;-93
2022/12/27 11:28:24;;;;;;;4.27;1.43;;;15.40;92.80;;;;;;4887171;29;20485;-93
2022/12/27 11:30:56;;;;;;;1.20;1.10;;;14.00;94.20;;;;;;4889092;29;20579;-93
2022/12/27 11:33:27;;;;;;;2.53;1.45;;;12.70;95.10;;;;;;4887742;29;20468;-93
2022/12/27 11:35:57;;;;;;;1.65;1.08;;;12.50;95.90;;;;;;4885856;29;20195;-92
2022/12/27 11:38:26;;;;;;;1.27;1.10;;;12.70;95.90;;;;;;4887654;29;20223;-93
2022/12/27 11:41:02;;;;;;;1.40;1.20;;;13.10;95.30;;;;;;4890471;29;20241;-92
2022/12/27 11:43:32;;;;;;;1.70;1.30;;;13.20;95.30;;;;;;4905217;29;20206;-92
2022/12/27 11:46:03;;;;;;;1.15;1.00;;;13.00;96.20;;;;;;4910209;29;20196;-93
2022/12/27 11:48:34;;;;;;;1.10;1.00;;;13.10;95.90;;;;;;4912964;29;20210;-93
2022/12/27 11:51:20;;;;;;;2.25;1.10;;;12.60;96.20;;;;;;4907348;29;20236;-93
2022/12/27 11:54:05;;;;;;;1.35;1.17;;;12.30;96.20;;;;;;4915223;29;20233;-94
2022/12/27 11:56:36;;;;;;;2.55;1.45;;;11.40;97.00;;;;;;4913561;29;20214;-93
2022/12/27 11:59:28;;;;;;;1.15;1.00;;;10.80;98.40;;;;;;4907158;29;20211;-93
2022/12/27 12:02:31;;;;;;;1.52;1.15;;;9.80;99.90;;;;;;4905929;29;20694;-93
2022/12/27 12:05:23;;;;;;;1.55;1.40;;;9.70;99.90;;;;;;4908972;29;20262;-93
2022/12/27 12:08:14;;;;;;;5.47;1.30;;;9.70;99.90;;;;;;4915044;29;20242;-92
2022/12/27 12:10:50;;;;;;;2.67;1.27;;;9.90;99.90;;;;;;4914803;29;20230;-93
2022/12/27 12:14:02;;;;;;;1.90;1.38;;;9.80;99.90;;;;;;4909476;29;20206;-94
2022/12/27 12:17:05;;;;;;;1.95;1.63;;;9.50;99.90;;;;;;4912351;29;20222;-93
2022/12/27 12:20:04;;;;;;;2.65;1.33;;;9.10;99.90;;;;;;4917028;29;20229;-95
2022/12/27 12:22:46;;;;;;;1.55;1.23;;;9.00;99.90;;;;;;4893561;29;20496;-94
2022/12/27 12:25:56;;;;;;;4.00;1.35;;;9.20;99.90;;;;;;4920312;29;20273;-96
2022/12/27 12:28:49;;;;;;;5.13;1.38;;;9.50;99.90;;;;;;4912512;29;20225;-94
2022/12/27 12:31:38;;;;;;;4.50;1.20;;;10.00;99.90;;;;;;4914451;29;20242;-94
2022/12/27 12:34:38;;;;;;;3.25;1.35;;;10.50;99.90;;;;;;4918397;29;20214;-93
2022/12/27 12:37:24;;;;;;;1.73;1.13;;;10.70;99.90;;;;;;4918507;29;20227;-91
2022/12/27 12:40:27;;;;;;;2.25;1.33;;;10.90;99.90;;;;;;4919726;29;20246;-93
2022/12/27 12:43:04;;;;;;;1.40;1.00;;;10.90;99.90;;;;;;4912607;29;20190;-93
2022/12/27 12:45:58;;;;;;;2.65;1.15;;;10.70;99.90;;;;;;4908867;29;20229;-94
2022/12/27 12:48:55;;;;;;;1.30;1.20;;;10.50;99.90;;;;;;4907429;29;20238;-94
2022/12/27 12:51:59;;;;;;;1.05;0.95;;;10.60;99.90;;;;;;4906070;29;20257;-93
2022/12/27 12:54:53;;;;;;;3.33;1.38;;;10.30;99.90;;;;;;4890236;29;20230;-95
2022/12/27 12:58:17;;;;;;;1.85;1.38;;;10.50;99.90;;;;;;4905992;29;20209;-93
2022/12/27 13:01:06;;;;;;;2.08;1.20;;;10.40;99.90;;;;;;4889784;29;20231;-93
2022/12/27 13:04:11;;;;;;;2.13;1.30;;;10.40;99.90;;;;;;4891330;29;20275;-94
2022/12/27 13:07:06;;;;;;;2.65;1.45;;;10.50;99.90;;;;;;4873722;29;20218;-94
2022/12/27 13:10:05;;;;;;;1.50;1.20;;;10.50;99.90;;;;;;4891051;29;20226;-93
2022/12/27 13:17:52;;;;;;;1.60;1.10;;;10.90;99.90;;;;;;5023387;23;20228;-93
2022/12/27 13:20:36;;;;;;;1.20;1.00;;;10.50;99.90;;;;;;4920509;29;20224;-91
2022/12/27 13:23:41;;;;;;;1.55;1.30;;;10.10;99.90;;;;;;4921981;29;20265;-93
2022/12/27 13:26:19;;;;;;;1.35;1.20;;;9.90;99.90;;;;;;4929814;29;20667;-93
2022/12/27 13:28:56;;;;;;;1.75;1.02;;;10.20;99.90;;;;;;4924480;29;20301;-92
2022/12/27 13:31:33;;;;;;;2.30;1.38;;;10.40;99.90;;;;;;4921758;29;20228;-93
2022/12/27 13:34:13;;;;;;;1.27;1.10;;;10.30;99.90;;;;;;4920890;29;20231;-92
2022/12/27 13:36:50;;;;;;;1.20;0.90;;;9.90;99.90;;;;;;4926004;29;20281;-92
2022/12/27 13:39:35;;;;;;;2.85;1.40;;;9.80;99.90;;;;;;4922336;29;20213;-92
2022/12/27 13:42:27;;;;;;;1.50;1.25;;;9.70;99.90;;;;;;4930960;29;20208;-92
2022/12/27 13:45:05;;;;;;;1.15;0.90;;;9.30;99.90;;;;;;4935433;29;20205;-92
2022/12/27 13:47:54;;;;;;;1.88;1.02;;;8.70;99.90;;;;;;4930235;29;20241;-93
2022/12/27 13:50:44;;;;;;;1.27;0.90;;;8.40;99.90;;;;;;4937642;29;20226;-93
2022/12/27 13:53:39;;;;;;;1.60;1.08;;;8.20;99.90;;;;;;4921501;29;20204;-92
2022/12/27 13:56:15;;;;;;;2.00;1.10;;;8.00;99.90;;;;;;4900919;29;20238;-92
2022/12/27 13:59:08;;;;;;;2.78;1.08;;;7.80;99.90;;;;;;4926996;29;20271;-93
2022/12/27 16:57:39;;;;;;;1.92;1.75;;;2.90;99.90;;;;;;3472665;23;1978392;-95
2022/12/27 17:00:37;;;;;;;6.60;1.90;;;2.90;99.90;;;;;;4920746;29;20222;-93
2022/12/27 17:03:41;;;;;;;1.42;1.20;;;2.90;99.90;;;;;;4918882;29;20205;-93
2022/12/27 17:06:41;;;;;;;2.97;1.95;;;2.80;99.90;;;;;;4920914;29;20204;-93
2022/12/27 17:18:06;;;;;;;3.00;2.15;;;2.60;99.90;;;;;;4230766;27;20232;-91
2022/12/27 17:20:34;;;;;;;7.57;2.60;;;2.60;99.90;;;;;;4891528;29;20234;-91
2022/12/27 17:23:04;;;;;;;2.78;2.08;;;2.60;99.90;;;;;;4892571;29;20215;-91
2022/12/27 17:25:48;;;;;;;2.72;1.80;;;2.60;99.90;;;;;;4889634;29;20214;-89
2022/12/27 17:28:24;;;;;;;5.80;2.03;;;2.60;99.90;;;;;;4889268;29;20207;-91
2022/12/27 17:30:57;;;;;;;4.55;1.73;;;2.50;99.90;;;;;;4889451;29;20234;-92
2022/12/27 17:33:38;;;;;;;3.42;2.28;;;2.50;99.90;;;;;;4891813;29;20221;-91
2022/12/27 17:36:25;;;;;;;3.17;1.92;;;2.40;99.90;;;;;;4894779;29;20231;-92
2022/12/27 17:39:03;;;;;;;2.85;1.95;;;2.40;99.90;;;;;;4894187;29;20222;-94
2022/12/27 17:44:37;;;;;;;3.30;2.00;;;2.20;99.90;;;;;;4895012;29;20729;-93
2022/12/27 17:47:26;;;;;;;4.22;2.90;;;2.10;99.90;;;;;;4893051;29;20211;-92
2022/12/27 17:49:58;;;;;;;3.30;2.33;;;2.10;99.90;;;;;;4893792;29;20271;-92
2022/12/27 17:58:05;;;;;;;7.97;3.13;;;2.00;99.90;;;;;;4898165;29;20243;-90
2022/12/27 18:00:35;;;;;;;3.53;2.60;;;1.90;99.90;;;;;;4905312;29;20219;-90
2022/12/27 18:03:07;;;;;;;2.50;2.22;;;1.80;99.90;;;;;;4905550;29;20181;-92
2022/12/27 18:05:39;;;;;;;2.47;2.20;;;1.70;99.90;;;;;;4905116;29;20191;-91
2022/12/27 18:08:15;;;;;;;2.10;1.92;;;1.70;99.90;;;;;;4901238;29;20272;-91
2022/12/27 18:10:42;;;;;;;3.38;2.08;;;1.60;99.90;;;;;;4897388;29;20247;-90
2022/12/27 18:13:17;;;;;;;1.80;1.70;;;1.60;99.90;;;;;;4899482;29;20212;-92
2022/12/27 18:15:47;;;;;;;2.95;2.60;;;1.50;99.90;;;;;;4900207;29;20211;-91
2022/12/27 18:18:21;;;;;;;1.67;1.58;;;1.50;99.90;;;;;;4901487;29;20192;-92
2022/12/27 18:20:55;;;;;;;2.40;2.20;;;1.50;99.90;;;;;;4903340;29;20235;-91
2022/12/27 18:23:21;;;;;;;2.47;2.10;;;1.50;99.90;;;;;;4895654;29;20202;-90
2022/12/27 18:25:54;;;;;;;4.40;1.98;;;1.50;99.90;;;;;;4884330;29;20192;-90
2022/12/27 18:28:23;;;;;;;2.17;1.33;;;1.50;99.90;;;;;;4882586;29;20203;-90
2022/12/27 18:30:54;;;;;;;3.35;1.75;;;1.50;99.90;;;;;;4881600;29;20207;-90
2022/12/27 18:33:28;;;;;;;2.40;1.52;;;1.40;99.90;;;;;;4890100;29;20199;-92
2022/12/27 18:35:58;;;;;;;1.92;1.20;;;1.50;99.90;;;;;;4903053;29;20287;-93
2022/12/27 18:38:28;;;;;;;3.75;1.60;;;1.40;99.90;;;;;;4902397;29;20197;-93
2022/12/27 18:41:02;;;;;;;1.63;1.52;;;1.40;99.90;;;;;;4902741;29;20226;-93
2022/12/27 18:43:36;;;;;;;4.22;1.88;;;1.40;99.90;;;;;;4902286;29;20523;-93
2022/12/27 18:46:04;;;;;;;2.75;2.40;;;1.40;99.90;;;;;;4902687;29;20206;-91
2022/12/27 18:48:35;;;;;;;1.70;1.52;;;1.50;99.90;;;;;;4902269;29;20223;-91
2022/12/27 18:51:04;;;;;;;4.90;2.55;;;1.40;99.90;;;;;;4902169;29;20303;-95
2022/12/27 18:53:34;;;;;;;1.98;1.80;;;1.40;99.90;;;;;;4901882;29;20199;-93
2022/12/27 18:56:05;;;;;;;6.80;3.03;;;1.40;99.90;;;;;;4902197;29;20249;-91
2022/12/27 18:58:32;;;;;;;2.25;2.00;;;1.40;99.90;;;;;;4901709;29;20288;-93
2022/12/27 19:01:02;;;;;;;3.65;2.28;;;1.40;99.90;;;;;;4901415;29;20258;-91
2022/12/27 19:03:29;;;;;;;2.47;1.52;;;1.40;99.90;;;;;;4901811;29;20219;-93
2022/12/27 19:06:09;;;;;;;3.55;2.22;;;1.50;99.90;;;;;;4901672;29;20205;-92
2022/12/27 19:08:39;;;;;;;8.38;2.70;;;1.50;99.90;;;;;;4900951;29;20221;-93
2022/12/27 19:11:07;;;;;;;2.75;2.08;;;1.50;99.90;;;;;;4900536;29;20219;-94
2022/12/27 19:13:43;;;;;;;2.53;1.98;;;1.50;99.90;;;;;;4900687;29;20187;-93
2022/12/27 19:16:22;;;;;;;2.45;2.00;;;1.40;99.90;;;;;;4899018;29;20251;-92
2022/12/27 19:18:52;;;;;;;1.80;1.60;;;1.30;99.90;;;;;;4896439;29;20240;-91
2022/12/27 19:21:31;;;;;;;3.03;1.60;;;1.30;99.90;;;;;;4896326;29;20231;-91
2022/12/27 19:24:20;;;;;;;2.42;2.10;;;1.10;99.90;;;;;;4896051;29;20193;-92
2022/12/27 19:26:47;;;;;;;1.88;1.52;;;1.10;99.90;;;;;;4897875;29;20224;-91
2022/12/27 19:29:16;;;;;;;1.60;1.40;;;1.00;99.90;;;;;;4897702;29;20325;-90
2022/12/27 19:31:52;;;;;;;3.00;1.98;;;0.90;99.90;;;;;;4893669;29;20217;-90
2022/12/27 19:34:21;;;;;;;2.05;1.70;;;0.80;99.90;;;;;;4893328;29;20554;-92
2022/12/27 19:36:49;;;;;;;2.78;1.60;;;0.70;99.90;;;;;;4894322;29;20247;-91
2022/12/27 19:39:21;;;;;;;4.35;2.33;;;0.70;99.90;;;;;;4895970;29;20231;-93
2022/12/27 19:41:48;;;;;;;2.97;1.33;;;0.70;99.90;;;;;;4894537;29;20223;-93
2022/12/27 19:44:15;;;;;;;1.85;1.75;;;0.60;99.90;;;;;;4897492;29;20259;-90
2022/12/27 19:46:43;;;;;;;1.90;1.77;;;0.60;99.90;;;;;;4901157;29;20206;-89
2022/12/27 19:49:10;;;;;;;1.95;1.50;;;0.50;99.90;;;;;;4899568;29;20258;-92
2022/12/27 19:51:38;;;;;;;2.10;1.90;;;0.60;99.90;;;;;;4900106;29;20279;-90
2022/12/27 20:46:51;;;;;;;3.60;2.33;;;0.40;99.90;;;;;;3030608;23;20248;-91
2022/12/27 20:49:18;;;;;;;5.20;2.53;;;0.60;99.90;;;;;;4939157;29;20202;-91
2022/12/27 20:51:46;;;;;;;3.90;3.20;;;0.90;99.90;;;;;;4940704;29;20205;-92
2022/12/27 20:54:13;;;;;;;3.67;3.10;;;1.00;99.90;;;;;;4939836;29;20182;-91
2022/12/27 20:56:40;;;;;;;4.60;3.55;;;1.10;99.90;;;;;;4939404;29;20253;-93
2022/12/27 20:59:07;;;;;;;5.60;3.55;;;1.10;99.90;;;;;;4938096;29;20226;-91
2022/12/27 21:01:34;;;;;;;4.03;2.92;;;1.10;99.90;;;;;;4938426;29;20205;-92
2022/12/27 21:04:03;;;;;;;3.50;2.45;;;1.00;99.90;;;;;;4931197;29;20229;-92
2022/12/27 21:06:30;;;;;;;4.72;3.03;;;1.00;99.90;;;;;;4933412;29;20208;-92
2022/12/27 21:11:31;;;;;;;3.38;2.75;;;0.80;99.90;;;;;;4938426;23;20320;-93
2022/12/27 21:14:00;;;;;;;4.03;2.50;;;0.80;99.90;;;;;;4933533;29;20202;-94
2022/12/27 21:16:29;;;;;;;4.20;3.47;;;0.90;99.90;;;;;;4943748;29;20240;-93
2022/12/27 21:19:02;;;;;;;6.43;3.38;;;0.90;99.90;;;;;;4944412;29;20260;-93
2022/12/27 21:21:31;;;;;;;5.88;2.95;;;1.00;99.90;;;;;;4924048;29;20259;-94
2022/12/27 21:23:59;;;;;;;4.43;2.63;;;1.00;99.90;;;;;;4923371;29;20191;-95
2022/12/27 21:26:28;;;;;;;3.15;2.38;;;1.10;99.90;;;;;;4925155;29;20192;-92
2022/12/27 21:28:58;;;;;;;4.18;3.05;;;1.10;99.90;;;;;;4925041;29;20179;-93
2022/12/27 21:31:26;;;;;;;3.42;3.13;;;1.20;99.90;;;;;;4925565;29;20203;-94
2022/12/27 21:33:53;;;;;;;3.70;3.20;;;1.20;99.90;;;;;;4925596;29;20191;-93
2022/12/27 21:36:23;;;;;;;4.03;3.03;;;1.20;99.90;;;;;;4925182;29;20262;-93
2022/12/27 21:38:55;;;;;;;3.15;2.72;;;1.20;99.90;;;;;;4925136;29;20214;-93
2022/12/27 21:41:24;;;;;;;2.88;2.67;;;1.20;99.90;;;;;;4925048;29;20237;-93
2022/12/27 21:43:52;;;;;;;6.47;3.97;;;1.20;99.90;;;;;;4925009;29;20193;-94
2022/12/27 21:46:22;;;;;;;3.55;2.78;;;1.10;99.90;;;;;;4925282;29;20214;-93
2022/12/27 21:48:55;;;;;;;5.40;3.75;;;1.10;99.90;;;;;;4924860;29;20187;-92
2022/12/27 21:51:25;;;;;;;7.68;3.17;;;1.10;99.90;;;;;;4924412;29;20250;-94
2022/12/27 21:53:57;;;;;;;5.75;3.38;;;1.10;99.90;;;;;;4923739;29;20182;-93
2022/12/27 21:56:30;;;;;;;3.13;2.90;;;1.00;99.90;;;;;;4951586;23;20234;-93
2022/12/27 21:59:06;;;;;;;3.35;3.05;;;1.00;99.90;;;;;;4924502;29;20194;-92
2022/12/27 22:01:33;;;;;;;3.83;3.33;;;1.10;99.90;;;;;;4905117;29;20266;-93
2022/12/27 22:04:01;;;;;;;5.25;3.55;;;1.10;99.90;;;;;;4905056;29;20665;-92
2022/12/27 22:06:30;;;;;;;3.47;3.13;;;1.20;99.90;;;;;;4904960;29;20221;-93
2022/12/27 22:09:04;;;;;;;5.88;3.95;;;1.20;99.90;;;;;;4904609;29;20191;-93
2022/12/27 22:11:34;;;;;;;5.78;3.97;;;1.30;99.90;;;;;;4905700;29;20203;-92
2022/12/27 22:14:05;;;;;;;5.32;3.47;;;1.30;99.90;;;;;;4905714;29;20188;-94
2022/12/27 22:16:36;;;;;;;4.20;3.38;;;1.40;99.90;;;;;;4905564;29;20212;-93
2022/12/27 22:19:09;;;;;;;4.85;3.72;;;1.40;99.90;;;;;;4905744;29;20252;-92
2022/12/27 22:21:38;;;;;;;6.10;3.65;;;1.40;99.90;;;;;;4904456;29;20195;-93
2022/12/27 22:24:18;;;;;;;4.82;3.90;;;1.40;99.90;;;;;;4905024;29;20195;-94
2022/12/27 22:26:47;;;;;;;3.50;3.20;;;1.40;99.90;;;;;;4904671;29;20214;-93
2022/12/27 22:29:23;;;;;;;4.82;4.28;;;1.50;99.90;;;;;;4904425;29;20231;-93
2022/12/27 22:31:50;;;;;;;8.57;3.72;;;1.50;99.90;;;;;;4903569;29;20204;-93
2022/12/27 22:34:18;;;;;;;4.65;3.25;;;1.50;99.90;;;;;;4904392;29;20653;-93
2022/12/27 22:36:53;;;;;;;6.00;3.80;;;1.50;99.90;;;;;;4905068;29;20204;-93
2022/12/27 22:39:22;;;;;;;3.40;2.90;;;1.60;99.90;;;;;;4904302;29;20194;-92
2022/12/27 22:41:49;;;;;;;6.35;3.42;;;1.60;99.90;;;;;;4904332;29;20215;-93
2022/12/27 22:44:16;;;;;;;4.18;3.65;;;1.60;99.90;;;;;;4904106;29;20183;-93
2022/12/27 22:46:43;;;;;;;6.05;3.70;;;1.60;99.90;;;;;;4904488;29;20258;-93
2022/12/27 22:49:10;;;;;;;5.05;3.20;;;1.60;99.90;;;;;;4903766;29;20267;-93
2022/12/27 22:51:39;;;;;;;4.10;3.20;;;1.60;99.90;;;;;;4903372;29;20258;-94
2022/12/27 22:54:08;;;;;;;4.30;3.80;;;1.60;99.90;;;;;;4903903;29;20218;-93
2022/12/27 22:56:39;;;;;;;4.80;3.85;;;1.60;99.90;;;;;;4903436;29;20266;-93
2022/12/27 22:59:07;;;;;;;7.07;4.43;;;1.60;99.90;;;;;;4902608;29;20191;-93
2022/12/27 23:01:34;;;;;;;5.18;3.60;;;1.60;99.90;;;;;;4903124;29;20259;-92
2022/12/27 23:04:03;;;;;;;5.35;3.47;;;1.70;99.90;;;;;;4901987;29;20236;-94
2022/12/27 23:06:32;;;;;;;6.63;3.80;;;1.60;99.90;;;;;;4901598;29;20251;-94
2022/12/27 23:09:01;;;;;;;5.15;3.83;;;1.60;99.90;;;;;;4902604;29;20280;-95
2022/12/27 23:11:30;;;;;;;4.93;3.40;;;1.60;99.90;;;;;;4902999;29;20200;-93
2022/12/27 23:14:01;;;;;;;5.40;3.60;;;1.60;99.90;;;;;;4903494;29;20219;-94
2022/12/27 23:16:34;;;;;;;10.40;4.90;;;1.60;99.90;;;;;;4903003;29;20425;-93
2022/12/27 23:19:01;;;;;;;4.35;3.33;;;1.60;99.90;;;;;;4899485;29;20218;-93
2022/12/27 23:21:28;;;;;;;4.43;3.20;;;1.60;99.90;;;;;;4902922;29;20277;-94
2022/12/27 23:23:59;;;;;;;5.03;3.67;;;1.70;99.90;;;;;;4903033;29;20199;-93
2022/12/27 23:26:26;;;;;;;4.60;4.20;;;1.60;99.90;;;;;;4902966;29;20226;-93
2022/12/27 23:28:54;;;;;;;4.13;2.90;;;1.60;99.90;;;;;;4902444;29;20231;-94
2022/12/27 23:31:25;;;;;;;5.82;4.03;;;1.50;99.90;;;;;;4900259;29;20246;-94
2022/12/27 23:33:55;;;;;;;6.70;3.80;;;1.60;99.90;;;;;;4900739;29;20176;-94
2022/12/27 23:36:22;;;;;;;4.13;3.65;;;1.60;99.90;;;;;;4901603;29;20224;-92
2022/12/27 23:38:50;;;;;;;4.30;3.83;;;1.60;99.90;;;;;;4901886;29;20219;-94
2022/12/27 23:41:19;;;;;;;3.90;3.60;;;1.50;99.90;;;;;;4902440;29;20238;-94
2022/12/27 23:43:47;;;;;;;4.55;3.88;;;1.60;99.90;;;;;;4902496;29;20187;-93
2022/12/27 23:46:15;;;;;;;4.88;3.72;;;1.60;99.90;;;;;;4901856;29;20279;-94
2022/12/27 23:48:44;;;;;;;7.63;3.50;;;1.60;99.90;;;;;;4901270;29;20217;-93
2022/12/27 23:51:15;;;;;;;10.20;4.75;;;1.60;99.90;;;;;;4899972;29;20229;-93
2022/12/27 23:53:43;;;;;;;4.57;3.42;;;1.60;99.90;;;;;;4899989;29;20211;-93
2022/12/27 23:56:15;;;;;;;5.15;3.30;;;1.60;99.90;;;;;;4899815;29;20223;-94
2022/12/27 23:58:42;;;;;;;5.90;3.03;;;1.60;99.90;;;;;;4901003;29;20200;-92
